Cortez, CO (81321)

11:37 AM MDT on August 30, 2015 (GMT -0600)
Kelly Place B&B, McElmo Canyon | | Change Station
CLOSE
Current Station
Personal Weather Station
Location: Cortez, CO
Elevation: 5522 ft
Nearby Weather Stations

Elev 5522 ft 37.34 °N, 108.79 °W | Updated 2 minutes ago

Partly Cloudy
Partly Cloudy
86.5 °F
Feels Like 84 °F
N
4.2
Wind Variable Wind from NE
Gusts 4.2 mph

Today
High -- | Low -- °F
--% Chance of Precip.
Yesterday
High -- | Low -- °F
Precip. -- in
6:43 AM 7:46 PM
Full, 99% visible
Pressure 30.04 in
Visibility 10.0 miles
Clouds Few 11000 ft
Heat Index 84 °F
Dew Point 49 °F
Humidity 28%
Rainfall 0.00 in
Snow Depth Not available.
UV 7 out of 12
Pollen 8.50 out of 12
Air Quality Not available.
Flu Activity Not available.
METAR KCEZ 301653Z AUTO 28003KT 10SM FEW110 24/08 A3025 RMK AO2 SLP170 T02440083
Pressure 30.04 in
Visibility 10.0 miles
Clouds Few 11000 ft
Heat Index 84 °F
Dew Point 49 °F
Humidity 28%
Rainfall 0.00 in
Snow Depth Not available.
UV 7 out of 12
Pollen 8.50 out of 12
Air Quality Not available.
Flu Activity Not available.
METAR KCEZ 301653Z AUTO 28003KT 10SM FEW110 24/08 A3025 RMK AO2 SLP170 T02440083

10-Day Weather Forecast

×

Almanac

Astronomy

Aug. 30, 2015 Rise Set
Actual Time
Civil Twilight
Nautical Twilight
Astronomical Twilight
Moon
Length of Visible Light
Length of Day
Tomorrow will be .
, % of the Moon is Illuminated

Today's Extremes

State Highs State Lows

Community

WunderPhotos

Upload Photos

1,851,014 photos uploaded!

WunderBlogs® & News

Nearby

Air Quality

  Air Quality AQ Index Pollutant
Not available.

Snow Depth

Station Depth Elevation

Earthquake Activity

City Distance Mag. Time & Date
Minimum magnitude displayed is 2.5.

Coastal Water Temperatures

Place Temperature

Stations

Nearby Weather Stations

Station Location Temp. Windchill Dew Point Humidity Wind Precip. Elev Updated Type